createdAt,value
2022-09-11T00:00:49.822Z,13.57
2022-09-11T00:03:16.382Z,14.93
2022-09-11T00:05:43.428Z,14.25
2022-09-11T00:08:12.022Z,14.98
2022-09-11T00:10:40.407Z,15.82
2022-09-11T00:13:07.652Z,14.45
2022-09-11T00:15:42.115Z,16.35
2022-09-11T00:18:13.223Z,17.90
2022-09-11T00:20:39.861Z,19.52
2022-09-11T00:23:06.456Z,15.93
2022-09-11T00:25:34.544Z,18.35
2022-09-11T00:28:01.521Z,18.42
2022-09-11T00:30:28.782Z,18.98
2022-09-11T00:32:55.772Z,20.48
2022-09-11T00:35:22.632Z,21.10
2022-09-11T00:37:49.085Z,23.30
2022-09-11T00:40:17.256Z,22.73
2022-09-11T00:42:43.796Z,24.13
2022-09-11T00:45:21.991Z,24.83
2022-09-11T00:47:49.301Z,26.42
2022-09-11T00:50:19.900Z,25.13
2022-09-11T00:52:56.996Z,27.67
2022-09-11T00:55:27.243Z,27.92
2022-09-11T00:57:59.047Z,27.65
2022-09-11T01:00:25.945Z,26.00
2022-09-11T01:02:53.471Z,30.33
2022-09-11T01:05:22.286Z,26.20
2022-09-11T01:07:50.316Z,30.20
2022-09-11T01:10:17.140Z,30.27
2022-09-11T01:12:52.494Z,31.08
2022-09-11T01:15:30.972Z,30.13
2022-09-11T01:18:15.000Z,29.63
2022-09-11T01:21:15.825Z,29.30
2022-09-11T01:24:13.929Z,31.10
2022-09-11T01:26:53.949Z,31.67
2022-09-11T01:29:29.763Z,31.17
2022-09-11T01:32:01.289Z,32.67
2022-09-11T01:34:44.017Z,35.05
2022-09-11T01:39:43.327Z,29.63
2022-09-11T01:42:14.726Z,34.55
2022-09-11T01:44:51.814Z,35.70
2022-09-11T01:47:19.881Z,35.40
2022-09-11T01:49:56.149Z,31.60
2022-09-11T01:52:27.984Z,38.05
2022-09-11T01:54:59.715Z,35.03
2022-09-11T01:57:37.626Z,36.30
2022-09-11T02:00:08.514Z,35.05
2022-09-11T02:02:38.586Z,37.63
2022-09-11T02:05:05.144Z,37.20
2022-09-11T02:07:36.516Z,44.55
2022-09-11T02:10:07.851Z,45.92
2022-09-11T02:12:40.866Z,49.38
2022-09-11T02:15:08.188Z,55.83
2022-09-11T02:17:43.730Z,57.83
2022-09-11T02:20:10.825Z,57.97
2022-09-11T02:22:37.443Z,63.95
2022-09-11T02:25:04.299Z,66.70
2022-09-11T02:27:33.758Z,65.15
2022-09-11T02:30:00.353Z,66.38
2022-09-11T02:32:27.063Z,66.30
2022-09-11T02:34:55.355Z,66.82
2022-09-11T02:37:41.016Z,74.93
2022-09-11T02:40:27.007Z,71.80
2022-09-11T02:43:19.427Z,72.40
2022-09-11T02:46:13.071Z,81.72
2022-09-11T02:49:06.765Z,78.07
2022-09-11T02:51:38.896Z,70.45
2022-09-11T02:54:24.493Z,76.45
2022-09-11T02:57:24.885Z,79.25
2022-09-11T03:00:01.042Z,85.15
2022-09-11T03:02:29.313Z,81.35
2022-09-11T03:04:56.671Z,81.65
2022-09-11T03:07:25.334Z,80.60
2022-09-11T03:09:52.468Z,83.45
2022-09-11T03:12:18.924Z,75.28
2022-09-11T03:14:45.418Z,83.63
2022-09-11T03:17:11.822Z,77.90
2022-09-11T03:19:38.243Z,79.82
2022-09-11T03:22:04.645Z,77.22
2022-09-11T03:24:31.134Z,78.30
2022-09-11T03:26:57.621Z,77.50
2022-09-11T03:29:24.093Z,80.15
2022-09-11T03:31:51.386Z,77.18
2022-09-11T03:34:18.001Z,78.35
2022-09-11T03:36:44.441Z,79.30
2022-09-11T03:39:10.891Z,77.05
2022-09-11T03:41:37.384Z,84.07
2022-09-11T03:44:03.937Z,79.65
2022-09-11T03:46:31.869Z,82.85
2022-09-11T03:48:59.445Z,79.82
2022-09-11T03:51:26.533Z,79.03
2022-09-11T03:53:53.389Z,75.82
2022-09-11T03:56:21.103Z,81.40
2022-09-11T03:58:48.264Z,87.85
2022-09-11T04:01:15.843Z,86.90
2022-09-11T04:03:42.573Z,87.65
2022-09-11T04:06:10.239Z,85.32
2022-09-11T04:08:37.037Z,95.07
2022-09-11T04:11:05.200Z,92.75
2022-09-11T04:13:34.571Z,95.75
2022-09-11T04:16:02.948Z,95.22
2022-09-11T04:18:30.418Z,100.05
2022-09-11T04:20:56.881Z,94.85
2022-09-11T04:23:23.398Z,100.78
2022-09-11T04:25:49.899Z,94.90
2022-09-11T04:28:16.447Z,93.35
2022-09-11T04:30:42.802Z,96.45
2022-09-11T04:33:09.317Z,92.65
2022-09-11T04:35:39.792Z,92.57
2022-09-11T04:38:07.627Z,100.13
2022-09-11T04:40:35.081Z,93.78
2022-09-11T04:43:02.248Z,83.78
2022-09-11T04:45:33.381Z,82.78
2022-09-11T04:48:00.846Z,73.38
2022-09-11T04:50:28.979Z,66.95
2022-09-11T04:52:55.437Z,64.80
2022-09-11T04:55:21.944Z,69.05
2022-09-11T04:57:48.661Z,67.20
2022-09-11T05:00:15.345Z,67.63
2022-09-11T05:02:41.785Z,69.70
2022-09-11T05:05:09.238Z,63.05
2022-09-11T05:07:36.022Z,64.93
2022-09-11T05:10:03.132Z,57.90
2022-09-11T05:12:31.825Z,58.95
2022-09-11T05:14:59.077Z,62.35
2022-09-11T05:17:25.470Z,67.93
2022-09-11T05:19:52.043Z,58.20
2022-09-11T05:22:18.486Z,61.42
2022-09-11T05:24:44.891Z,67.03
2022-09-11T05:27:11.967Z,68.35
2022-09-11T05:29:39.230Z,58.72
2022-09-11T05:32:05.962Z,52.60
2022-09-11T05:34:32.405Z,44.95
2022-09-11T05:36:58.997Z,46.80
2022-09-11T05:39:25.368Z,47.70
2022-09-11T05:41:52.402Z,48.25
2022-09-11T05:44:19.561Z,48.88
2022-09-11T05:46:46.092Z,47.40
2022-09-11T05:49:13.017Z,47.97
2022-09-11T05:51:41.576Z,47.53
2022-09-11T05:54:08.223Z,55.45
2022-09-11T05:56:34.805Z,52.88
2022-09-11T05:59:02.435Z,55.25
2022-09-11T06:01:29.115Z,51.38
2022-09-11T06:03:55.619Z,49.10
2022-09-11T06:06:23.057Z,48.85
2022-09-11T06:08:51.822Z,47.95
2022-09-11T06:11:19.377Z,48.42
2022-09-11T06:13:46.682Z,46.42
2022-09-11T06:16:18.799Z,46.05
2022-09-11T06:18:49.273Z,49.67
2022-09-11T06:21:19.989Z,47.10
2022-09-11T06:23:47.989Z,46.83
2022-09-11T06:26:16.515Z,45.25
2022-09-11T06:28:43.015Z,48.20
2022-09-11T06:31:16.316Z,46.83
2022-09-11T06:33:43.272Z,49.53
2022-09-11T06:36:12.070Z,50.97
2022-09-11T06:38:39.021Z,47.50
2022-09-11T06:41:07.687Z,45.58
2022-09-11T06:43:34.305Z,43.33
2022-09-11T06:46:05.227Z,44.40
2022-09-11T06:48:31.719Z,48.10
2022-09-11T06:51:05.487Z,43.13
2022-09-11T06:53:31.929Z,45.42
2022-09-11T06:56:09.080Z,45.78
2022-09-11T06:58:35.778Z,44.67
2022-09-11T07:01:11.529Z,46.90
2022-09-11T07:03:38.436Z,43.85
2022-09-11T07:06:06.258Z,48.88
2022-09-11T07:08:32.641Z,51.63
2022-09-11T07:11:04.704Z,49.45
2022-09-11T07:13:36.732Z,48.40
2022-09-11T07:16:06.591Z,47.63
2022-09-11T07:18:38.139Z,44.35
2022-09-11T07:21:25.018Z,49.55
2022-09-11T07:23:56.878Z,48.63
2022-09-11T07:26:26.234Z,45.33
2022-09-11T07:28:54.574Z,47.47
2022-09-11T07:31:23.490Z,45.08
2022-09-11T07:33:51.283Z,47.28
2022-09-11T07:36:20.145Z,43.30
2022-09-11T07:38:48.145Z,44.58
2022-09-11T07:41:16.747Z,41.58
2022-09-11T07:43:46.747Z,42.35
2022-09-11T07:46:13.985Z,42.22
2022-09-11T07:48:42.742Z,44.03
2022-09-11T07:51:14.022Z,39.42
2022-09-11T07:53:46.089Z,38.80
2022-09-11T07:56:18.490Z,35.80
2022-09-11T08:01:16.776Z,31.17
2022-09-11T08:03:43.858Z,32.97
2022-09-11T08:06:14.787Z,35.35
2022-09-11T08:08:43.436Z,33.28
2022-09-11T08:11:12.688Z,33.08
2022-09-11T08:13:39.308Z,38.72
2022-09-11T08:16:06.622Z,35.00
2022-09-11T08:18:35.256Z,35.90
2022-09-11T08:21:03.691Z,38.15
2022-09-11T08:23:32.096Z,38.60
2022-09-11T08:26:12.000Z,33.92
2022-09-11T08:28:39.112Z,34.85
2022-09-11T08:31:06.695Z,34.90
2022-09-11T08:33:33.578Z,35.80
2022-09-11T08:36:02.150Z,30.08
2022-09-11T08:38:29.126Z,34.20
2022-09-11T08:40:57.454Z,33.30
2022-09-11T08:43:26.951Z,33.40
2022-09-11T08:45:57.008Z,31.40
2022-09-11T08:48:29.874Z,33.70
2022-09-11T08:50:56.302Z,31.00
2022-09-11T08:53:22.867Z,29.92
2022-09-11T08:55:52.960Z,30.33
2022-09-11T08:58:36.532Z,31.52
2022-09-11T09:01:26.134Z,30.92
2022-09-11T09:04:19.869Z,31.60
2022-09-11T09:07:16.555Z,33.38
2022-09-11T09:10:21.886Z,31.92
2022-09-11T09:13:30.347Z,30.77
2022-09-11T09:16:28.140Z,30.80
2022-09-11T09:19:03.384Z,35.92
2022-09-11T09:21:35.357Z,35.28
2022-09-11T09:24:04.241Z,30.35
2022-09-11T09:26:38.637Z,31.88
2022-09-11T09:29:14.410Z,33.80
2022-09-11T09:31:42.139Z,32.67
2022-09-11T09:34:19.789Z,32.00
2022-09-11T09:36:57.563Z,26.65
2022-09-11T09:39:24.339Z,28.17
2022-09-11T09:42:16.442Z,28.42
2022-09-11T09:44:51.849Z,28.23
2022-09-11T09:47:18.329Z,28.60
2022-09-11T09:49:45.320Z,30.85
2022-09-11T09:52:24.399Z,29.90
2022-09-11T09:55:02.359Z,27.13
2022-09-11T09:57:37.099Z,28.02
2022-09-11T10:00:21.685Z,25.58
2022-09-11T10:02:53.992Z,28.92
2022-09-11T10:05:26.286Z,27.17
2022-09-11T10:07:58.722Z,27.10
2022-09-11T10:13:18.565Z,26.98
2022-09-11T10:15:48.288Z,27.25
2022-09-11T10:18:33.361Z,29.08
2022-09-11T10:21:12.230Z,26.52
2022-09-11T10:24:01.188Z,28.10
2022-09-11T10:26:38.662Z,28.00
2022-09-11T10:29:17.240Z,20.52
2022-09-11T10:31:51.409Z,22.55
2022-09-11T10:34:20.119Z,27.35
2022-09-11T10:36:56.288Z,27.42
2022-09-11T10:39:25.100Z,22.63
2022-09-11T10:41:54.483Z,20.88
2022-09-11T10:44:22.113Z,21.08
2022-09-11T10:47:26.595Z,18.70
2022-09-11T10:50:20.347Z,22.77
2022-09-11T10:52:58.358Z,18.88
2022-09-11T10:55:35.427Z,17.48
2022-09-11T10:58:14.159Z,19.50
2022-09-11T11:00:40.594Z,18.67
2022-09-11T11:03:23.111Z,15.55
2022-09-11T11:06:27.407Z,18.67
2022-09-11T11:09:00.078Z,17.58
2022-09-11T11:11:38.060Z,18.88
2022-09-11T11:14:11.418Z,18.95
2022-09-11T11:17:05.815Z,21.00
2022-09-11T11:19:45.734Z,23.92
2022-09-11T11:22:20.196Z,17.88
2022-09-11T11:25:17.855Z,19.52
2022-09-11T11:28:06.898Z,20.48
2022-09-11T11:30:55.508Z,21.92
2022-09-11T11:33:46.977Z,20.05
2022-09-11T11:36:27.594Z,19.90
2022-09-11T11:39:00.520Z,21.10
2022-09-11T11:41:30.782Z,20.05
2022-09-11T11:43:58.920Z,20.05
2022-09-11T11:46:30.284Z,17.88
2022-09-11T11:49:00.265Z,17.58
2022-09-11T11:51:28.120Z,18.15
2022-09-11T11:54:00.075Z,19.33
2022-09-11T11:56:45.083Z,18.95
2022-09-11T11:59:18.975Z,16.85
2022-09-11T12:01:50.673Z,17.17
2022-09-11T12:04:42.187Z,18.52
2022-09-11T12:07:30.399Z,19.70
2022-09-11T12:09:58.885Z,17.95
2022-09-11T12:12:28.390Z,15.60
2022-09-11T12:14:57.192Z,15.52
2022-09-11T12:17:31.603Z,15.27
2022-09-11T12:20:13.297Z,13.32
2022-09-11T12:22:48.712Z,14.13
2022-09-11T12:25:21.298Z,13.38
2022-09-11T12:27:48.751Z,12.60
2022-09-11T12:30:18.190Z,13.18
2022-09-11T12:33:02.887Z,12.38
2022-09-11T12:35:31.428Z,13.52
2022-09-11T12:38:06.716Z,9.75
2022-09-11T12:40:53.230Z,8.48
2022-09-11T12:43:28.674Z,10.15
2022-09-11T12:45:56.991Z,10.00
2022-09-11T12:48:33.344Z,8.75
2022-09-11T12:51:00.837Z,7.90
2022-09-11T12:53:31.125Z,8.98
2022-09-11T12:56:02.727Z,8.82
2022-09-11T12:58:37.281Z,7.80
2022-09-11T13:01:26.105Z,8.55
2022-09-11T13:04:01.966Z,6.10
2022-09-11T13:06:56.177Z,7.13
2022-09-11T13:09:25.392Z,7.32
2022-09-11T13:11:53.820Z,6.43
2022-09-11T13:14:29.351Z,6.95
2022-09-11T13:16:57.187Z,5.10
2022-09-11T13:19:24.425Z,5.47
2022-09-11T13:21:52.083Z,5.70
2022-09-11T13:24:30.311Z,7.55
2022-09-11T13:27:24.550Z,5.07
2022-09-11T13:29:51.715Z,6.97
2022-09-11T13:32:18.438Z,6.53
2022-09-11T13:34:47.127Z,7.85
2022-09-11T13:37:30.995Z,6.18
2022-09-11T13:39:57.776Z,5.47
2022-09-11T13:42:25.687Z,8.63
2022-09-11T13:44:53.165Z,7.65
2022-09-11T13:47:21.851Z,5.35
2022-09-11T13:49:50.034Z,8.25
2022-09-11T13:52:16.558Z,7.07
2022-09-11T13:54:46.673Z,5.28
2022-09-11T13:57:21.076Z,6.43
2022-09-11T13:59:51.850Z,6.07
2022-09-11T14:02:34.668Z,4.85
2022-09-11T14:05:10.465Z,6.35
2022-09-11T14:07:47.595Z,4.60
2022-09-11T14:10:27.379Z,5.60
2022-09-11T14:13:19.113Z,6.32
2022-09-11T14:16:08.498Z,5.93
2022-09-11T14:18:41.089Z,5.70
2022-09-11T14:21:23.234Z,6.35
2022-09-11T14:23:54.404Z,5.72
2022-09-11T14:26:27.081Z,6.68
2022-09-11T14:28:58.108Z,6.82
2022-09-11T14:31:46.886Z,7.82
2022-09-11T14:34:16.185Z,5.15
2022-09-11T14:36:45.982Z,3.97
2022-09-11T14:39:31.002Z,4.13
2022-09-11T14:41:57.999Z,6.30
2022-09-11T14:44:26.243Z,4.20
2022-09-11T14:46:53.431Z,5.50
2022-09-11T14:49:19.861Z,5.15
2022-09-11T14:51:52.513Z,5.07
2022-09-11T14:54:20.567Z,4.43
2022-09-11T14:56:47.823Z,4.95
2022-09-11T14:59:14.314Z,7.10
2022-09-11T15:01:40.799Z,4.47
2022-09-11T15:04:10.993Z,4.82
2022-09-11T15:06:37.425Z,8.57
2022-09-11T15:09:03.850Z,5.60
2022-09-11T15:11:37.403Z,3.85
2022-09-11T15:14:32.280Z,4.88
2022-09-11T15:16:58.060Z,6.47
2022-09-11T15:19:24.618Z,4.60
2022-09-11T15:21:51.144Z,4.88
2022-09-11T15:24:17.825Z,3.92
2022-09-11T15:26:44.210Z,4.28
2022-09-11T15:29:11.086Z,6.22
2022-09-11T15:31:38.096Z,4.50
2022-09-11T15:34:07.217Z,3.85
2022-09-11T15:36:34.231Z,7.38
2022-09-11T15:39:00.692Z,4.90
2022-09-11T15:41:28.018Z,4.72
2022-09-11T15:43:54.436Z,3.33
2022-09-11T15:46:22.589Z,4.80
2022-09-11T15:48:49.840Z,4.32
2022-09-11T15:51:21.928Z,5.22
2022-09-11T15:53:48.404Z,3.65
2022-09-11T15:56:18.254Z,4.47
2022-09-11T15:58:47.609Z,4.47
2022-09-11T16:01:18.272Z,5.07
2022-09-11T16:03:45.044Z,5.78
2022-09-11T16:06:11.529Z,5.85
2022-09-11T16:08:39.717Z,4.07
2022-09-11T16:11:06.209Z,3.10
2022-09-11T16:13:32.727Z,4.55
2022-09-11T16:16:04.328Z,4.70
2022-09-11T16:18:31.222Z,7.78
2022-09-11T16:20:58.539Z,4.82
2022-09-11T16:23:26.294Z,4.47
2022-09-11T16:25:52.932Z,5.07
2022-09-11T16:28:19.553Z,3.95
2022-09-11T16:30:50.658Z,5.82
2022-09-11T16:33:17.608Z,6.15
2022-09-11T16:35:45.181Z,4.32
2022-09-11T16:38:11.597Z,4.35
2022-09-11T16:40:38.105Z,4.95
2022-09-11T16:43:07.702Z,4.97
2022-09-11T16:45:34.703Z,4.72
2022-09-11T16:48:02.460Z,4.82
2022-09-11T16:50:29.080Z,4.07
2022-09-11T16:52:55.563Z,3.58
2022-09-11T16:55:22.196Z,4.97
2022-09-11T16:57:49.194Z,6.70
2022-09-11T17:00:15.648Z,5.88
2022-09-11T17:02:42.057Z,5.45
2022-09-11T17:05:09.166Z,5.40
2022-09-11T17:07:35.879Z,6.43
2022-09-11T17:10:03.199Z,4.38
2022-09-11T17:12:29.611Z,4.20
2022-09-11T17:14:56.061Z,4.70
2022-09-11T17:17:23.269Z,4.32
2022-09-11T17:19:51.000Z,6.25
2022-09-11T17:22:17.611Z,5.22
2022-09-11T17:24:44.497Z,4.88
2022-09-11T17:27:10.895Z,5.63
2022-09-11T17:29:41.192Z,4.80
2022-09-11T17:32:27.291Z,7.75
2022-09-11T17:34:54.766Z,7.47
2022-09-11T17:37:21.216Z,8.50
2022-09-11T17:39:47.663Z,8.15
2022-09-11T17:42:14.062Z,10.73
2022-09-11T17:44:41.357Z,9.85
2022-09-11T17:47:07.933Z,11.50
2022-09-11T17:49:34.443Z,9.63
2022-09-11T17:52:00.803Z,9.43
2022-09-11T17:54:28.045Z,9.60
2022-09-11T17:56:55.486Z,10.10
2022-09-11T17:59:22.610Z,10.77
2022-09-11T18:01:49.561Z,8.95
2022-09-11T18:04:17.617Z,12.32
2022-09-11T18:06:44.396Z,8.35
2022-09-11T18:09:16.055Z,9.05
2022-09-11T18:11:44.054Z,7.95
2022-09-11T18:14:11.425Z,7.68
2022-09-11T18:16:38.254Z,8.07
2022-09-11T18:19:05.032Z,9.48
2022-09-11T18:21:38.234Z,7.65
2022-09-11T18:24:09.852Z,8.27
2022-09-11T18:26:40.014Z,8.47
2022-09-11T18:29:11.365Z,9.88
2022-09-11T18:31:40.237Z,8.15
2022-09-11T18:34:07.223Z,9.43
2022-09-11T18:36:33.643Z,8.38
2022-09-11T18:39:01.839Z,7.63
2022-09-11T18:41:30.066Z,9.60
2022-09-11T18:43:57.601Z,6.85
2022-09-11T18:46:24.858Z,7.80
2022-09-11T18:48:51.486Z,7.75
2022-09-11T18:51:19.756Z,7.28
2022-09-11T18:53:51.874Z,6.85
2022-09-11T18:56:19.739Z,6.57
2022-09-11T18:58:48.418Z,7.57
2022-09-11T19:01:20.130Z,8.30
2022-09-11T19:03:47.198Z,7.05
2022-09-11T19:06:15.357Z,8.38
2022-09-11T19:08:43.306Z,6.72
2022-09-11T19:11:16.466Z,8.80
2022-09-11T19:13:45.840Z,8.93
2022-09-11T19:16:12.964Z,9.95
2022-09-11T19:18:39.492Z,7.70
2022-09-11T19:21:10.205Z,9.65
2022-09-11T19:23:39.773Z,8.85
2022-09-11T19:26:14.191Z,10.45
2022-09-11T19:28:42.066Z,10.75
2022-09-11T19:31:10.273Z,10.20
2022-09-11T19:33:38.265Z,9.00
2022-09-11T19:36:09.948Z,11.15
2022-09-11T19:38:40.164Z,10.47
2022-09-11T19:41:08.553Z,10.38
2022-09-11T19:43:36.299Z,10.50
2022-09-11T19:46:07.241Z,10.68
2022-09-11T19:48:34.280Z,12.13
2022-09-11T19:51:03.433Z,11.80
2022-09-11T19:53:30.312Z,13.60
2022-09-11T19:55:57.903Z,11.75
2022-09-11T19:58:24.885Z,10.63
2022-09-11T20:00:51.708Z,12.32
2022-09-11T20:03:18.612Z,10.38
2022-09-11T20:05:45.776Z,11.90
2022-09-11T20:08:16.209Z,11.90
2022-09-11T20:10:45.379Z,11.35
2022-09-11T20:13:11.777Z,11.85
2022-09-11T20:15:39.168Z,11.50
2022-09-11T20:18:07.379Z,13.07
2022-09-11T20:20:34.781Z,15.63
2022-09-11T20:23:01.187Z,12.45
2022-09-11T20:25:27.941Z,12.13
2022-09-11T20:27:54.407Z,11.52
2022-09-11T20:30:22.838Z,10.45
2022-09-11T20:32:49.224Z,12.45
2022-09-11T20:35:15.629Z,11.10
2022-09-11T20:37:42.092Z,11.60
2022-09-11T20:40:09.317Z,10.60
2022-09-11T20:42:35.820Z,11.93
2022-09-11T20:45:02.190Z,11.40
2022-09-11T20:47:28.988Z,12.25
2022-09-11T20:49:55.352Z,13.50
2022-09-11T20:52:22.837Z,14.30
2022-09-11T20:54:49.322Z,11.15
2022-09-11T20:57:15.727Z,11.98
2022-09-11T20:59:43.345Z,12.23
2022-09-11T21:02:10.938Z,13.73
2022-09-11T21:04:37.788Z,13.18
2022-09-11T21:07:04.207Z,11.73
2022-09-11T21:09:31.084Z,13.10
2022-09-11T21:11:57.521Z,14.43
2022-09-11T21:14:24.009Z,13.52
2022-09-11T21:16:52.379Z,13.95
2022-09-11T21:19:18.788Z,13.85
2022-09-11T21:21:45.199Z,14.35
2022-09-11T21:24:13.167Z,15.02
2022-09-11T21:26:39.750Z,14.02
2022-09-11T21:29:08.164Z,15.15
2022-09-11T21:31:35.324Z,15.38
2022-09-11T21:34:02.093Z,15.20
2022-09-11T21:36:28.671Z,15.05
2022-09-11T21:38:55.089Z,16.05
2022-09-11T21:41:21.450Z,14.73
2022-09-11T21:43:47.854Z,15.02
2022-09-11T21:46:14.326Z,16.70
2022-09-11T21:48:41.441Z,17.98
2022-09-11T21:51:13.034Z,15.48
2022-09-11T21:53:41.075Z,15.17
2022-09-11T21:56:16.200Z,14.02
2022-09-11T21:58:42.618Z,16.00
2022-09-11T22:01:09.050Z,16.98
2022-09-11T22:03:35.589Z,16.77
2022-09-11T22:06:06.018Z,15.13
2022-09-11T22:08:32.785Z,14.60
2022-09-11T22:11:02.666Z,14.30
2022-09-11T22:13:29.129Z,15.25
2022-09-11T22:15:55.560Z,13.95
2022-09-11T22:18:22.018Z,14.23
2022-09-11T22:20:48.396Z,16.23
2022-09-11T22:23:17.119Z,14.90
2022-09-11T22:25:45.018Z,15.30
2022-09-11T22:28:11.402Z,14.50
2022-09-11T22:30:41.854Z,14.93
2022-09-11T22:33:08.891Z,13.50
2022-09-11T22:35:35.546Z,13.15
2022-09-11T22:38:02.023Z,14.23
2022-09-11T22:40:28.407Z,13.15
2022-09-11T22:42:54.778Z,16.65
2022-09-11T22:45:21.169Z,15.20
2022-09-11T22:47:47.544Z,16.33
2022-09-11T22:50:13.978Z,15.18
2022-09-11T22:52:40.910Z,17.88
2022-09-11T22:55:07.846Z,15.18
2022-09-11T22:57:35.606Z,18.35
2022-09-11T23:00:04.514Z,17.58
2022-09-11T23:02:30.900Z,17.15
2022-09-11T23:05:15.823Z,18.73
2022-09-11T23:07:42.212Z,16.38
2022-09-11T23:10:09.938Z,20.65
2022-09-11T23:12:37.330Z,19.92
2022-09-11T23:15:04.384Z,18.08
2022-09-11T23:17:30.902Z,20.92
2022-09-11T23:19:57.339Z,17.95
2022-09-11T23:22:23.742Z,16.48
2022-09-11T23:24:50.196Z,19.08
2022-09-11T23:27:16.558Z,18.92
2022-09-11T23:29:42.988Z,18.15
2022-09-11T23:32:09.408Z,17.38
2022-09-11T23:34:35.816Z,19.42
2022-09-11T23:37:02.228Z,18.10
2022-09-11T23:39:28.736Z,21.23
2022-09-11T23:41:55.168Z,18.52
2022-09-11T23:44:21.603Z,18.77
2022-09-11T23:46:48.010Z,18.67
2022-09-11T23:49:15.949Z,21.00
2022-09-11T23:51:42.540Z,20.52
2022-09-11T23:54:08.952Z,20.27
2022-09-11T23:56:35.367Z,21.45
2022-09-11T23:59:01.743Z,23.73
